Time;durP1;ratioP1;P1;durP2;ratioP2;P2;SDS_P1;SDS_P2;PMS_P1;PMS_P2;Temp;Humidity;BMP_temperature;BMP_pressure;BME280_temperature;BME280_humidity;BME280_pressure;Samples;Min_cycle;Max_cycle;Signal;HPM_P1;HPM_P2
2023/06/08 00:00:10;;;;;;;;;;;18.90;99.90;;;;;;7328798;19;110100;-74
2023/06/08 00:02:37;;;;;;;;;;;18.90;99.90;;;;;;7339129;19;110332;-74
2023/06/08 00:05:05;;;;;;;;;;;18.90;99.90;;;;;;7328440;19;109796;-74
2023/06/08 00:07:34;;;;;;;;;;;18.80;99.90;;;;;;7332508;19;115629;-74
2023/06/08 00:10:01;;;;;;;;;;;18.80;99.90;;;;;;7333505;19;109980;-74
2023/06/08 00:12:29;;;;;;;;;;;18.90;99.90;;;;;;7330294;19;109774;-73
2023/06/08 00:14:57;;;;;;;;;;;18.90;99.90;;;;;;7329281;19;110744;-74
2023/06/08 00:17:24;;;;;;;;;;;18.80;99.90;;;;;;7330911;19;111188;-74
2023/06/08 00:19:56;;;;;;;;;;;18.90;99.90;;;;;;7330214;19;109930;-74
2023/06/08 00:22:24;;;;;;;;;;;18.90;99.90;;;;;;7329832;19;111090;-74
2023/06/08 00:24:51;;;;;;;;;;;18.80;99.90;;;;;;7337759;19;109728;-74
2023/06/08 00:27:18;;;;;;;;;;;18.80;99.90;;;;;;7332602;19;110021;-74
2023/06/08 00:29:45;;;;;;;;;;;18.70;99.90;;;;;;7338363;19;110991;-74
2023/06/08 00:32:12;;;;;;;;;;;18.60;99.90;;;;;;7338123;19;110504;-74
2023/06/08 00:34:39;;;;;;;;;;;18.60;99.90;;;;;;7336984;19;111830;-74
2023/06/08 00:37:07;;;;;;;;;;;18.60;99.90;;;;;;7339305;19;110270;-74
2023/06/08 00:39:34;;;;;;;;;;;18.50;99.90;;;;;;7337719;19;110742;-74
2023/06/08 00:42:01;;;;;;;;;;;18.50;99.90;;;;;;7338905;19;110216;-74
2023/06/08 00:44:28;;;;;;;;;;;18.50;99.90;;;;;;7338004;19;109599;-74
2023/06/08 00:46:55;;;;;;;;;;;18.50;99.90;;;;;;7343493;19;111729;-74
2023/06/08 00:49:22;;;;;;;;;;;18.40;99.90;;;;;;7336565;19;111511;-74
2023/06/08 00:51:50;;;;;;;;;;;18.40;99.90;;;;;;7338904;19;110035;-74
2023/06/08 00:54:17;;;;;;;;;;;18.30;99.90;;;;;;7338300;19;111956;-74
2023/06/08 00:56:48;;;;;;;;;;;18.30;99.90;;;;;;7338546;19;109746;-73
2023/06/08 00:59:16;;;;;;;;;;;18.30;99.90;;;;;;7336608;19;111802;-74
2023/06/08 01:01:44;;;;;;;;;;;18.20;99.90;;;;;;7334129;19;113211;-75
2023/06/08 01:04:14;;;;;;;;;;;18.10;99.90;;;;;;7336702;19;109718;-74
2023/06/08 01:06:45;;;;;;;;;;;18.10;99.90;;;;;;7343792;19;110009;-74
2023/06/08 01:09:30;;;;;;;;;;;18.00;99.90;;;;;;7334767;19;109259;-74
2023/06/08 01:12:05;;;;;;;;;;;17.90;99.90;;;;;;7340155;19;109430;-74
2023/06/08 01:14:51;;;;;;;;;;;17.90;99.90;;;;;;7334106;19;112453;-74
2023/06/08 01:17:20;;;;;;;;;;;17.80;99.90;;;;;;7336176;19;109837;-74
2023/06/08 01:19:52;;;;;;;;;;;17.70;99.90;;;;;;7334771;19;109580;-74
2023/06/08 01:22:25;;;;;;;;;;;17.70;99.90;;;;;;7336745;19;111297;-73
2023/06/08 01:24:56;;;;;;;;;;;17.60;99.90;;;;;;7332558;19;111061;-74
2023/06/08 01:27:28;;;;;;;;;;;17.50;99.90;;;;;;7336719;19;110428;-74
2023/06/08 01:29:56;;;;;;;;;;;17.50;99.90;;;;;;7342199;19;113488;-74
2023/06/08 01:32:23;;;;;;;;;;;17.50;99.90;;;;;;7331753;19;109852;-74
2023/06/08 01:34:50;;;;;;;;;;;17.50;99.90;;;;;;7335784;19;111075;-74
2023/06/08 01:37:29;;;;;;;;;;;17.40;99.90;;;;;;7335161;19;109445;-75
2023/06/08 01:40:04;;;;;;;;;;;17.40;99.90;;;;;;7331704;19;110838;-74
2023/06/08 01:42:32;;;;;;;;;;;17.30;99.90;;;;;;7338240;19;110322;-73
2023/06/08 01:45:03;;;;;;;;;;;17.30;99.90;;;;;;7336887;19;109332;-74
2023/06/08 01:47:35;;;;;;;;;;;17.30;99.90;;;;;;7337713;19;109312;-74
2023/06/08 01:50:07;;;;;;;;;;;17.30;99.90;;;;;;7336458;19;110119;-74
2023/06/08 01:52:35;;;;;;;;;;;17.30;99.90;;;;;;7343384;19;109987;-74
2023/06/08 01:55:02;;;;;;;;;;;17.30;99.90;;;;;;7332649;19;110186;-74
2023/06/08 01:57:32;;;;;;;;;;;17.20;99.90;;;;;;7336667;19;118709;-74
2023/06/08 01:59:59;;;;;;;;;;;17.20;99.90;;;;;;7333606;19;109732;-74
2023/06/08 02:02:27;;;;;;;;;;;17.20;99.90;;;;;;7334186;19;110062;-73
2023/06/08 02:04:54;;;;;;;;;;;17.10;99.90;;;;;;7336334;19;109996;-75
2023/06/08 02:07:22;;;;;;;;;;;17.10;99.90;;;;;;7335790;19;110171;-73
2023/06/08 02:09:49;;;;;;;;;;;17.20;99.90;;;;;;7335233;19;110148;-73
2023/06/08 02:12:16;;;;;;;;;;;17.20;99.90;;;;;;7334492;19;110319;-73
2023/06/08 02:14:43;;;;;;;;;;;17.20;99.90;;;;;;7341047;19;109975;-74
2023/06/08 02:17:18;;;;;;;;;;;17.20;99.90;;;;;;7334625;19;110040;-73
2023/06/08 02:19:45;;;;;;;;;;;17.10;99.90;;;;;;7336117;19;111336;-73
2023/06/08 02:22:12;;;;;;;;;;;17.20;99.90;;;;;;7337387;19;109732;-74
2023/06/08 02:24:39;;;;;;;;;;;17.20;99.90;;;;;;7334485;19;109871;-73
2023/06/08 02:27:08;;;;;;;;;;;17.10;99.90;;;;;;7334668;19;111851;-73
2023/06/08 02:29:35;;;;;;;;;;;17.00;99.90;;;;;;7336012;19;109870;-74
2023/06/08 02:32:03;;;;;;;;;;;16.90;99.90;;;;;;7334791;19;113702;-74
2023/06/08 02:34:30;;;;;;;;;;;16.90;99.90;;;;;;7338340;19;110574;-73
2023/06/08 02:36:57;;;;;;;;;;;16.90;99.90;;;;;;7342580;19;110634;-73
2023/06/08 02:39:24;;;;;;;;;;;16.80;99.90;;;;;;7338250;19;110352;-73
2023/06/08 02:41:51;;;;;;;;;;;16.70;99.90;;;;;;7336556;19;110234;-73
2023/06/08 02:44:18;;;;;;;;;;;16.70;99.90;;;;;;7336686;19;109829;-73
2023/06/08 02:46:46;;;;;;;;;;;16.60;99.90;;;;;;7336191;19;109791;-73
2023/06/08 02:49:14;;;;;;;;;;;16.50;99.90;;;;;;7334488;19;110111;-74
2023/06/08 02:51:42;;;;;;;;;;;16.50;99.90;;;;;;7333929;19;109600;-74
2023/06/08 02:54:09;;;;;;;;;;;16.40;99.90;;;;;;7331872;19;109815;-73
2023/06/08 02:56:36;;;;;;;;;;;16.40;99.90;;;;;;7336627;19;111308;-73
2023/06/08 02:59:03;;;;;;;;;;;16.40;99.90;;;;;;7342283;19;110379;-73
2023/06/08 03:01:33;;;;;;;;;;;16.30;99.90;;;;;;7336832;19;110249;-73
2023/06/08 03:04:00;;;;;;;;;;;16.30;99.90;;;;;;7335077;19;109378;-74
2023/06/08 03:06:33;;;;;;;;;;;16.20;99.90;;;;;;7336048;19;109690;-73
2023/06/08 03:09:00;;;;;;;;;;;16.20;99.90;;;;;;7333841;19;111321;-74
2023/06/08 03:11:27;;;;;;;;;;;16.20;99.90;;;;;;7335769;19;109710;-75
2023/06/08 03:13:54;;;;;;;;;;;16.20;99.90;;;;;;7333928;19;110824;-77
2023/06/08 03:16:22;;;;;;;;;;;16.10;99.90;;;;;;7332711;19;110429;-75
2023/06/08 03:18:50;;;;;;;;;;;16.10;99.90;;;;;;7336899;19;109952;-74
2023/06/08 03:21:18;;;;;;;;;;;16.10;99.90;;;;;;7333759;19;111081;-74
2023/06/08 03:23:48;;;;;;;;;;;16.10;99.90;;;;;;7332242;19;109795;-74
2023/06/08 03:26:16;;;;;;;;;;;16.10;99.90;;;;;;7331468;19;110075;-76
2023/06/08 03:28:43;;;;;;;;;;;16.10;99.90;;;;;;7334585;19;111929;-74
2023/06/08 03:31:11;;;;;;;;;;;16.00;99.90;;;;;;7331441;19;109722;-81
2023/06/08 03:33:39;;;;;;;;;;;16.00;99.90;;;;;;7336116;19;110341;-80
2023/06/08 03:36:06;;;;;;;;;;;15.90;99.90;;;;;;7334224;19;111645;-80
2023/06/08 03:38:33;;;;;;;;;;;15.90;99.90;;;;;;7336001;19;109503;-80
2023/06/08 03:41:00;;;;;;;;;;;15.90;99.90;;;;;;7341004;19;110072;-80
2023/06/08 03:43:27;;;;;;;;;;;15.80;99.90;;;;;;7337321;19;109460;-80
2023/06/08 03:45:55;;;;;;;;;;;15.80;99.90;;;;;;7336854;19;110354;-80
2023/06/08 03:48:22;;;;;;;;;;;15.80;99.90;;;;;;7334434;19;111407;-80
2023/06/08 03:50:52;;;;;;;;;;;15.70;99.90;;;;;;7334614;19;109734;-80
2023/06/08 03:53:18;;;;;;;;;;;15.70;99.90;;;;;;7338734;19;110447;-80
2023/06/08 03:55:46;;;;;;;;;;;15.80;99.90;;;;;;7337341;19;111267;-80
2023/06/08 03:58:13;;;;;;;;;;;15.80;99.90;;;;;;7334669;19;109288;-80
2023/06/08 04:00:41;;;;;;;;;;;15.80;99.90;;;;;;7336461;19;112672;-79
2023/06/08 04:03:09;;;;;;;;;;;15.80;99.90;;;;;;7349613;19;111117;-80
2023/06/08 04:05:37;;;;;;;;;;;15.80;99.90;;;;;;7340793;19;109580;-80
2023/06/08 04:08:04;;;;;;;;;;;15.70;99.90;;;;;;7343785;19;111165;-80
2023/06/08 04:10:31;;;;;;;;;;;15.70;99.90;;;;;;7339472;19;109806;-80
2023/06/08 04:12:58;;;;;;;;;;;15.70;99.90;;;;;;7340500;19;110278;-79
2023/06/08 04:15:25;;;;;;;;;;;15.70;99.90;;;;;;7339657;19;111801;-80
2023/06/08 04:17:52;;;;;;;;;;;15.60;99.90;;;;;;7342978;19;110983;-80
2023/06/08 04:20:19;;;;;;;;;;;15.60;99.90;;;;;;7341147;19;112360;-80
2023/06/08 04:22:46;;;;;;;;;;;15.60;99.90;;;;;;7340031;19;111174;-79
2023/06/08 04:25:14;;;;;;;;;;;15.70;99.90;;;;;;7345483;19;109897;-80
2023/06/08 04:27:41;;;;;;;;;;;15.70;99.90;;;;;;7337961;19;113988;-80
2023/06/08 04:30:08;;;;;;;;;;;15.70;99.90;;;;;;7339474;19;110376;-80
2023/06/08 04:32:36;;;;;;;;;;;15.60;99.90;;;;;;7336276;19;110858;-80
2023/06/08 04:35:04;;;;;;;;;;;15.60;99.90;;;;;;7339458;19;111035;-80
2023/06/08 04:37:32;;;;;;;;;;;15.50;99.90;;;;;;7341282;19;110347;-80
2023/06/08 04:40:01;;;;;;;;;;;15.50;99.90;;;;;;7338813;19;111834;-80
2023/06/08 04:42:29;;;;;;;;;;;15.60;99.90;;;;;;7339138;19;110273;-79
2023/06/08 04:45:00;;;;;;;;;;;15.60;99.90;;;;;;7338699;19;109568;-80
2023/06/08 04:47:31;;;;;;;;;;;15.60;99.90;;;;;;7343916;19;109720;-79
2023/06/08 04:49:58;;;;;;;;;;;15.60;99.90;;;;;;7336018;19;109474;-80
2023/06/08 04:52:26;;;;;;;;;;;15.60;99.90;;;;;;7339294;19;110414;-80
2023/06/08 04:54:53;;;;;;;;;;;15.60;99.90;;;;;;7337864;19;110774;-79
2023/06/08 04:57:22;;;;;;;;;;;15.60;99.90;;;;;;7339385;19;109529;-80
2023/06/08 04:59:49;;;;;;;;;;;15.60;99.90;;;;;;7339149;19;110733;-80
2023/06/08 05:02:16;;;;;;;;;;;15.60;99.90;;;;;;7339322;19;111109;-79
2023/06/08 05:04:44;;;;;;;;;;;15.70;99.90;;;;;;7340340;19;109874;-80
2023/06/08 05:07:11;;;;;;;;;;;15.70;99.90;;;;;;7339018;19;110207;-80
2023/06/08 05:09:38;;;;;;;;;;;15.70;99.90;;;;;;7346132;19;111158;-80
2023/06/08 05:12:07;;;;;;;;;;;15.70;99.90;;;;;;7337690;19;110034;-79
2023/06/08 05:14:34;;;;;;;;;;;15.70;99.90;;;;;;7336999;19;111367;-80
2023/06/08 05:17:02;;;;;;;;;;;15.70;99.90;;;;;;7337830;19;111870;-80
2023/06/08 05:19:29;;;;;;;;;;;15.70;99.90;;;;;;7339047;19;110626;-80
2023/06/08 05:21:56;;;;;;;;;;;15.70;99.90;;;;;;7338685;19;112515;-79
2023/06/08 05:24:23;;;;;;;;;;;15.70;99.90;;;;;;7337586;19;111814;-80
2023/06/08 05:26:50;;;;;;;;;;;15.80;99.90;;;;;;7337815;19;110428;-80
2023/06/08 05:29:17;;;;;;;;;;;15.90;99.90;;;;;;7342446;19;111131;-80
2023/06/08 05:31:44;;;;;;;;;;;15.90;99.90;;;;;;7335885;19;113166;-80
2023/06/08 05:34:11;;;;;;;;;;;15.90;99.90;;;;;;7337144;19;111302;-80
2023/06/08 05:36:38;;;;;;;;;;;15.90;99.90;;;;;;7334729;19;110341;-80
2023/06/08 05:39:05;;;;;;;;;;;16.00;99.90;;;;;;7339178;19;110019;-80
2023/06/08 05:41:33;;;;;;;;;;;16.00;99.90;;;;;;7336260;19;113716;-81
2023/06/08 05:44:00;;;;;;;;;;;16.00;99.90;;;;;;7337671;19;109564;-80
2023/06/08 05:46:27;;;;;;;;;;;16.10;99.90;;;;;;7341214;19;110104;-80
2023/06/08 05:48:54;;;;;;;;;;;16.10;99.90;;;;;;7338518;19;111168;-80
2023/06/08 05:51:22;;;;;;;;;;;16.20;99.90;;;;;;7338377;19;109844;-80
2023/06/08 05:53:49;;;;;;;;;;;16.20;99.90;;;;;;7338212;19;111588;-80
2023/06/08 05:56:16;;;;;;;;;;;16.40;99.90;;;;;;7335295;19;109669;-80
2023/06/08 05:58:43;;;;;;;;;;;16.40;99.90;;;;;;7334806;19;110552;-79
2023/06/08 06:01:17;;;;;;;;;;;16.50;99.90;;;;;;7336428;19;111177;-81
2023/06/08 06:03:44;;;;;;;;;;;16.50;99.90;;;;;;7337413;19;110999;-79
2023/06/08 06:06:12;;;;;;;;;;;16.60;99.90;;;;;;7335329;19;110813;-80
2023/06/08 06:08:39;;;;;;;;;;;16.60;99.90;;;;;;7334894;19;111735;-80
2023/06/08 06:11:10;;;;;;;;;;;16.70;99.90;;;;;;7335425;19;109431;-80
2023/06/08 06:13:36;;;;;;;;;;;16.80;99.90;;;;;;7340608;19;110463;-80
2023/06/08 06:16:04;;;;;;;;;;;16.80;99.90;;;;;;7339998;19;110154;-80
2023/06/08 06:18:31;;;;;;;;;;;16.90;99.90;;;;;;7337642;19;110530;-80
2023/06/08 06:20:58;;;;;;;;;;;16.90;99.90;;;;;;7335896;19;111946;-80
2023/06/08 06:23:25;;;;;;;;;;;17.00;99.90;;;;;;7340264;19;109325;-80
2023/06/08 06:25:52;;;;;;;;;;;17.00;99.90;;;;;;7335453;19;109426;-80
2023/06/08 06:28:19;;;;;;;;;;;17.10;99.90;;;;;;7333069;19;111422;-80
2023/06/08 06:30:46;;;;;;;;;;;17.20;99.90;;;;;;7336500;19;109709;-80
2023/06/08 06:33:13;;;;;;;;;;;17.30;99.90;;;;;;7333898;19;110086;-81
2023/06/08 06:35:42;;;;;;;;;;;17.30;99.90;;;;;;7340416;19;111271;-80
2023/06/08 06:38:09;;;;;;;;;;;17.30;99.90;;;;;;7334306;19;110078;-80
2023/06/08 06:40:36;;;;;;;;;;;17.40;99.90;;;;;;7333049;19;112847;-80
2023/06/08 06:43:03;;;;;;;;;;;17.40;99.90;;;;;;7331242;19;111401;-81
2023/06/08 06:45:30;;;;;;;;;;;17.60;99.90;;;;;;7339143;19;110080;-81
2023/06/08 06:47:57;;;;;;;;;;;17.70;99.90;;;;;;7333142;19;111440;-80
2023/06/08 06:50:24;;;;;;;;;;;17.80;99.90;;;;;;7335046;19;109577;-81
2023/06/08 06:52:51;;;;;;;;;;;17.90;99.90;;;;;;7333084;19;110385;-80
2023/06/08 06:55:18;;;;;;;;;;;17.90;99.90;;;;;;7336335;19;111196;-80
2023/06/08 06:57:48;;;;;;;;;;;18.00;99.90;;;;;;7339922;19;109807;-81
2023/06/08 07:00:15;;;;;;;;;;;18.10;99.90;;;;;;7334196;19;111279;-80
2023/06/08 07:02:43;;;;;;;;;;;18.30;99.90;;;;;;7328693;19;110494;-80
2023/06/08 07:05:10;;;;;;;;;;;18.30;99.90;;;;;;7335860;19;110094;-81
2023/06/08 07:07:38;;;;;;;;;;;18.30;99.90;;;;;;7333027;19;113066;-82
2023/06/08 07:10:05;;;;;;;;;;;18.40;99.90;;;;;;7333700;19;109658;-81
2023/06/08 07:12:32;;;;;;;;;;;18.50;99.90;;;;;;7334399;19;110344;-81
2023/06/08 07:14:59;;;;;;;;;;;18.60;99.90;;;;;;7335801;19;111013;-81
2023/06/08 07:17:26;;;;;;;;;;;18.70;99.90;;;;;;7334285;19;109410;-81
2023/06/08 07:19:53;;;;;;;;;;;18.90;99.90;;;;;;7341515;19;110198;-81
2023/06/08 07:22:21;;;;;;;;;;;18.90;99.90;;;;;;7334691;19;110723;-81
2023/06/08 07:25:11;;;;;;;;;;;19.10;99.90;;;;;;7332409;19;111901;-81
2023/06/08 07:27:59;;;;;;;;;;;19.20;99.90;;;;;;7333626;19;112962;-80
2023/06/08 07:30:31;;;;;;;;;;;19.20;99.90;;;;;;7333304;19;109905;-80
2023/06/08 07:32:59;;;;;;;;;;;19.30;99.90;;;;;;7335304;19;110824;-80
2023/06/08 07:35:26;;;;;;;;;;;19.30;99.90;;;;;;7332030;19;111464;-81
2023/06/08 07:37:53;;;;;;;;;;;19.40;99.90;;;;;;7338256;19;109905;-81
2023/06/08 07:40:21;;;;;;;;;;;19.50;99.90;;;;;;7347061;19;110678;-81
2023/06/08 07:42:48;;;;;;;;;;;19.50;99.90;;;;;;7341081;19;109765;-80
2023/06/08 07:45:15;;;;;;;;;;;19.60;99.90;;;;;;7339586;19;110407;-81
2023/06/08 07:47:43;;;;;;;;;;;19.70;99.90;;;;;;7338655;19;111502;-80
2023/06/08 07:50:10;;;;;;;;;;;19.70;99.90;;;;;;7341414;19;111344;-81
2023/06/08 07:52:38;;;;;;;;;;;19.80;99.90;;;;;;7340517;19;113733;-81
2023/06/08 08:03:23;;;;;;;;;;;20.00;99.90;;;;;;7341612;19;114001;-74
2023/06/08 08:05:50;;;;;;;;;;;20.10;99.90;;;;;;7342771;19;109886;-74
2023/06/08 08:08:17;;;;;;;;;;;20.20;99.90;;;;;;7339694;19;110091;-75
2023/06/08 08:10:45;;;;;;;;;;;20.20;99.90;;;;;;7341306;19;109496;-74
2023/06/08 08:13:12;;;;;;;;;;;20.30;99.90;;;;;;7338453;19;110389;-75
2023/06/08 08:15:42;;;;;;;;;;;20.40;99.90;;;;;;7341209;19;111245;-75
2023/06/08 08:18:09;;;;;;;;;;;20.50;99.90;;;;;;7339443;19;109885;-74
2023/06/08 08:20:37;;;;;;;;;;;20.60;99.90;;;;;;7337908;19;111624;-74
2023/06/08 08:23:05;;;;;;;;;;;20.60;99.90;;;;;;7339448;19;110292;-74
2023/06/08 08:25:34;;;;;;;;;;;20.70;99.90;;;;;;7343245;19;110012;-74
2023/06/08 08:28:02;;;;;;;;;;;20.70;99.90;;;;;;7340144;19;109904;-74
2023/06/08 08:30:30;;;;;;;;;;;20.90;99.90;;;;;;7335378;19;109656;-74
2023/06/08 08:32:57;;;;;;;;;;;21.00;99.90;;;;;;7337713;19;109247;-73
2023/06/08 08:35:28;;;;;;;;;;;21.00;99.90;;;;;;7335387;19;111505;-75
2023/06/08 08:37:56;;;;;;;;;;;21.10;99.90;;;;;;7339345;19;109379;-74
2023/06/08 08:40:23;;;;;;;;;;;21.20;99.90;;;;;;7338439;19;109982;-74
2023/06/08 08:42:58;;;;;;;;;;;21.30;99.90;;;;;;7338349;19;111206;-74
2023/06/08 08:45:27;;;;;;;;;;;21.30;99.90;;;;;;7337912;19;109834;-74
2023/06/08 08:47:55;;;;;;;;;;;21.30;99.90;;;;;;7341784;19;109474;-74
2023/06/08 08:50:23;;;;;;;;;;;21.50;99.90;;;;;;7337801;19;110020;-75
2023/06/08 08:52:53;;;;;;;;;;;21.50;99.90;;;;;;7335621;19;110125;-75
2023/06/08 08:55:27;;;;;;;;;;;21.50;99.90;;;;;;7334439;19;111960;-74
2023/06/08 08:58:02;;;;;;;;;;;21.50;99.90;;;;;;7335700;19;111289;-74
2023/06/08 09:00:31;;;;;;;;;;;21.50;99.90;;;;;;7336102;19;111473;-74
2023/06/08 09:02:59;;;;;;;;;;;21.60;99.90;;;;;;7336436;19;110492;-73
2023/06/08 09:05:32;;;;;;;;;;;21.60;99.90;;;;;;7336017;19;109687;-74
2023/06/08 09:07:59;;;;;;;;;;;21.70;99.90;;;;;;7336822;19;109589;-75
2023/06/08 09:10:27;;;;;;;;;;;21.80;99.90;;;;;;7341656;19;110091;-75
2023/06/08 09:12:54;;;;;;;;;;;21.80;99.90;;;;;;7336478;19;111961;-74
2023/06/08 09:15:28;;;;;;;;;;;21.90;99.90;;;;;;7336220;19;110105;-74
2023/06/08 09:17:56;;;;;;;;;;;21.90;99.90;;;;;;7337745;19;110510;-74
2023/06/08 09:20:31;;;;;;;;;;;22.00;99.90;;;;;;7337894;19;109411;-74
2023/06/08 09:23:11;;;;;;;;;;;22.10;99.90;;;;;;7335168;19;111070;-74
2023/06/08 09:25:38;;;;;;;;;;;22.30;99.90;;;;;;7336140;19;110120;-74
2023/06/08 09:28:17;;;;;;;;;;;22.40;99.90;;;;;;7336657;19;110190;-74
2023/06/08 09:30:45;;;;;;;;;;;22.50;99.90;;;;;;7334118;19;111237;-76
2023/06/08 09:33:23;;;;;;;;;;;22.60;99.90;;;;;;7341306;19;109529;-74
2023/06/08 09:35:56;;;;;;;;;;;22.60;99.90;;;;;;7336437;19;110470;-74
2023/06/08 09:38:26;;;;;;;;;;;22.70;99.90;;;;;;7334088;19;109629;-74
2023/06/08 09:41:14;;;;;;;;;;;22.70;99.90;;;;;;7331594;19;109999;-76
2023/06/08 09:43:43;;;;;;;;;;;22.80;99.90;;;;;;7336776;19;112806;-74
2023/06/08 09:46:13;;;;;;;;;;;22.80;99.90;;;;;;7336399;19;110205;-74
2023/06/08 09:48:40;;;;;;;;;;;22.90;99.90;;;;;;7338229;19;110077;-74
2023/06/08 09:51:08;;;;;;;;;;;23.00;99.90;;;;;;7334475;19;110804;-75
2023/06/08 09:53:36;;;;;;;;;;;23.10;99.90;;;;;;7342099;19;110257;-74
2023/06/08 09:56:04;;;;;;;;;;;23.20;99.90;;;;;;7334297;19;110151;-75
2023/06/08 09:58:35;;;;;;;;;;;23.30;99.90;;;;;;7338649;19;109387;-74
2023/06/08 10:01:03;;;;;;;;;;;23.40;99.90;;;;;;7334818;19;110245;-74
2023/06/08 10:03:37;;;;;;;;;;;23.50;99.90;;;;;;7336107;19;110778;-74
2023/06/08 10:06:08;;;;;;;;;;;23.60;99.90;;;;;;7336951;19;110188;-74
2023/06/08 10:08:37;;;;;;;;;;;23.70;99.90;;;;;;7333393;19;110083;-74
2023/06/08 10:11:06;;;;;;;;;;;23.80;99.90;;;;;;7334093;19;110829;-74
2023/06/08 10:13:34;;;;;;;;;;;24.00;99.90;;;;;;7334856;19;112193;-74
2023/06/08 10:16:01;;;;;;;;;;;24.10;99.90;;;;;;7340937;19;109442;-74
2023/06/08 10:18:29;;;;;;;;;;;24.10;99.90;;;;;;7336030;19;109374;-75
2023/06/08 10:20:57;;;;;;;;;;;24.20;99.90;;;;;;7337176;19;110027;-75
2023/06/08 10:23:26;;;;;;;;;;;24.30;99.90;;;;;;7336756;19;110471;-74
2023/06/08 10:25:55;;;;;;;;;;;24.50;99.90;;;;;;7334593;19;110575;-74
2023/06/08 10:28:22;;;;;;;;;;;24.50;99.90;;;;;;7335825;19;110790;-74
2023/06/08 10:30:50;;;;;;;;;;;24.60;99.90;;;;;;7333376;19;110175;-74
2023/06/08 10:33:21;;;;;;;;;;;24.60;99.90;;;;;;7335794;19;109523;-73
2023/06/08 10:36:05;;;;;;;;;;;24.70;99.90;;;;;;7336796;19;112768;-74
2023/06/08 10:39:00;;;;;;;;;;;24.70;99.90;;;;;;7340533;19;110417;-74
2023/06/08 10:41:37;;;;;;;;;;;24.80;99.90;;;;;;7335533;19;109487;-74
2023/06/08 10:44:04;;;;;;;;;;;24.90;99.50;;;;;;7334416;19;111948;-74
2023/06/08 10:46:43;;;;;;;;;;;24.90;99.60;;;;;;7336615;19;110196;-76
2023/06/08 10:49:10;;;;;;;;;;;24.80;99.10;;;;;;7332199;19;109961;-74
2023/06/08 10:51:44;;;;;;;;;;;25.00;99.60;;;;;;7336888;19;110287;-74
2023/06/08 10:54:20;;;;;;;;;;;25.10;99.60;;;;;;7332974;19;109789;-75
2023/06/08 10:56:53;;;;;;;;;;;25.20;99.20;;;;;;7336338;19;112224;-75
2023/06/08 10:59:40;;;;;;;;;;;25.30;99.60;;;;;;7333948;19;110536;-75
2023/06/08 11:02:07;;;;;;;;;;;25.40;98.60;;;;;;7371600;19;110336;-83
2023/06/08 11:04:34;;;;;;;;;;;25.50;98.90;;;;;;7367600;19;110674;-83
2023/06/08 11:07:14;;;;;;;;;;;25.50;98.60;;;;;;7372396;19;109132;-82
2023/06/08 11:09:46;;;;;;;;;;;25.50;97.90;;;;;;7371505;19;110424;-83
2023/06/08 11:12:13;;;;;;;;;;;25.40;97.60;;;;;;7369673;19;109959;-82
2023/06/08 11:14:40;;;;;;;;;;;25.40;98.70;;;;;;7372947;19;109015;-82
2023/06/08 11:17:07;;;;;;;;;;;25.60;99.00;;;;;;7370290;19;111450;-81
2023/06/08 11:19:35;;;;;;;;;;;25.70;97.90;;;;;;7373420;19;111003;-82
2023/06/08 11:22:02;;;;;;;;;;;25.80;98.40;;;;;;7374001;19;108971;-82
2023/06/08 11:24:30;;;;;;;;;;;25.90;98.30;;;;;;7377387;19;109557;-82
2023/06/08 11:27:00;;;;;;;;;;;26.00;97.50;;;;;;7343816;19;109560;-82
2023/06/08 11:29:31;;;;;;;;;;;26.00;97.70;;;;;;7338202;19;109454;-82
2023/06/08 11:32:11;;;;;;;;;;;26.00;97.70;;;;;;7337018;19;110379;-82
2023/06/08 11:34:41;;;;;;;;;;;26.20;97.90;;;;;;7337793;19;109798;-82
2023/06/08 11:37:08;;;;;;;;;;;26.40;98.30;;;;;;7333354;19;110398;-82
2023/06/08 11:39:40;;;;;;;;;;;26.50;97.30;;;;;;7338009;19;111324;-85
2023/06/08 11:42:08;;;;;;;;;;;26.50;98.20;;;;;;7335791;19;111319;-82
2023/06/08 11:44:35;;;;;;;;;;;26.70;97.70;;;;;;7342152;19;110270;-81
2023/06/08 11:47:03;;;;;;;;;;;26.80;97.70;;;;;;7339739;19;112092;-82
2023/06/08 11:49:49;;;;;;;;;;;26.90;97.00;;;;;;7335163;19;110772;-82
2023/06/08 11:52:17;;;;;;;;;;;26.90;97.50;;;;;;7335849;19;110633;-82
2023/06/08 11:54:44;;;;;;;;;;;27.10;97.00;;;;;;7335070;19;109903;-82
2023/06/08 11:57:11;;;;;;;;;;;27.20;96.60;;;;;;7335333;19;110326;-81
2023/06/08 11:59:40;;;;;;;;;;;27.30;96.60;;;;;;7334109;19;110672;-82
2023/06/08 12:02:10;;;;;;;;;;;27.30;95.50;;;;;;7333348;19;110549;-82
2023/06/08 12:04:37;;;;;;;;;;;27.40;95.30;;;;;;7335058;19;110260;-82
2023/06/08 12:07:10;;;;;;;;;;;27.50;95.70;;;;;;7339201;19;110887;-83
2023/06/08 12:09:37;;;;;;;;;;;27.60;95.90;;;;;;7333400;19;110571;-82
2023/06/08 12:12:08;;;;;;;;;;;27.60;94.20;;;;;;7330411;19;111504;-82
2023/06/08 12:14:36;;;;;;;;;;;27.60;93.80;;;;;;7331136;19;109403;-82
2023/06/08 12:17:03;;;;;;;;;;;27.60;94.00;;;;;;7332667;19;112189;-82
2023/06/08 12:19:31;;;;;;;;;;;27.70;94.70;;;;;;7335442;19;111458;-82
2023/06/08 12:21:58;;;;;;;;;;;27.80;94.90;;;;;;7335491;19;109349;-81
2023/06/08 12:24:26;;;;;;;;;;;28.00;95.10;;;;;;7340045;19;110649;-81
2023/06/08 12:26:53;;;;;;;;;;;28.20;94.40;;;;;;7342227;19;111109;-81
2023/06/08 12:29:20;;;;;;;;;;;28.20;92.50;;;;;;7344560;19;109715;-82
2023/06/08 12:31:49;;;;;;;;;;;28.00;92.70;;;;;;7339103;19;111285;-81
2023/06/08 12:34:17;;;;;;;;;;;28.10;93.90;;;;;;7339165;19;109985;-82
2023/06/08 12:36:44;;;;;;;;;;;28.20;93.00;;;;;;7336976;19;110731;-82
2023/06/08 12:39:12;;;;;;;;;;;28.40;92.70;;;;;;7338596;19;111231;-83
2023/06/08 12:41:39;;;;;;;;;;;28.50;91.80;;;;;;7338678;19;109555;-82
2023/06/08 12:44:07;;;;;;;;;;;28.50;91.50;;;;;;7335661;19;110415;-82
2023/06/08 13:11:28;;;;;;;;;;;29.30;89.70;;;;;;7334660;19;109953;-75
2023/06/08 13:13:55;;;;;;;;;;;29.40;90.40;;;;;;7337461;19;109316;-75
2023/06/08 13:16:22;;;;;;;;;;;29.50;89.60;;;;;;7338172;19;110205;-74
2023/06/08 13:18:49;;;;;;;;;;;29.60;90.80;;;;;;7334838;19;111592;-76
2023/06/08 13:21:17;;;;;;;;;;;29.70;90.10;;;;;;7334812;19;111052;-74
2023/06/08 13:23:44;;;;;;;;;;;29.80;90.20;;;;;;7335289;19;110115;-75
2023/06/08 13:26:11;;;;;;;;;;;29.80;90.00;;;;;;7336309;19;110633;-75
2023/06/08 13:28:40;;;;;;;;;;;29.90;88.00;;;;;;7336979;19;112718;-75
2023/06/08 13:31:07;;;;;;;;;;;30.00;87.50;;;;;;7333093;19;110711;-74
2023/06/08 13:33:34;;;;;;;;;;;30.00;87.50;;;;;;7334999;19;109783;-74
2023/06/08 13:36:01;;;;;;;;;;;29.90;85.50;;;;;;7334461;19;110805;-75
2023/06/08 13:38:29;;;;;;;;;;;29.80;87.40;;;;;;7343882;19;109677;-75
2023/06/08 13:40:56;;;;;;;;;;;29.80;87.00;;;;;;7336246;19;110570;-75
2023/06/08 13:43:23;;;;;;;;;;;29.90;86.70;;;;;;7334888;19;110922;-74
2023/06/08 13:45:56;;;;;;;;;;;30.10;87.20;;;;;;7336626;19;110264;-76
2023/06/08 13:48:25;;;;;;;;;;;30.20;85.70;;;;;;7336080;19;109730;-75
2023/06/08 13:50:53;;;;;;;;;;;30.10;85.40;;;;;;7336676;19;109493;-74
2023/06/08 13:53:21;;;;;;;;;;;30.20;85.30;;;;;;7336259;19;109986;-75
2023/06/08 13:55:48;;;;;;;;;;;30.30;85.00;;;;;;7336032;19;110095;-74
2023/06/08 13:58:15;;;;;;;;;;;30.40;86.60;;;;;;7341056;19;110300;-75
2023/06/08 14:00:42;;;;;;;;;;;30.50;85.20;;;;;;7337934;19;110698;-75
2023/06/08 14:03:09;;;;;;;;;;;30.40;83.90;;;;;;7334535;19;109765;-74
2023/06/08 14:05:36;;;;;;;;;;;30.40;85.70;;;;;;7335560;19;110795;-74
2023/06/08 14:08:03;;;;;;;;;;;30.50;85.70;;;;;;7333232;19;110365;-75
2023/06/08 14:10:31;;;;;;;;;;;30.30;85.00;;;;;;7336838;19;109871;-74
2023/06/08 14:12:58;;;;;;;;;;;30.40;85.70;;;;;;7334242;19;109922;-76
2023/06/08 14:15:25;;;;;;;;;;;30.50;85.20;;;;;;7335203;19;111199;-74
2023/06/08 14:17:55;;;;;;;;;;;30.30;83.00;;;;;;7337198;19;109978;-74
2023/06/08 14:20:23;;;;;;;;;;;30.30;87.10;;;;;;7338251;19;110665;-74
2023/06/08 14:22:51;;;;;;;;;;;30.40;86.10;;;;;;7333187;19;112453;-74
2023/06/08 14:25:18;;;;;;;;;;;30.50;86.50;;;;;;7333129;19;110629;-74
2023/06/08 14:27:45;;;;;;;;;;;30.60;87.40;;;;;;7334298;19;111484;-75
2023/06/08 14:30:12;;;;;;;;;;;30.50;82.80;;;;;;7333231;19;109459;-72
2023/06/08 14:32:39;;;;;;;;;;;30.40;83.60;;;;;;7333729;19;111628;-72
2023/06/08 14:35:07;;;;;;;;;;;30.40;85.60;;;;;;7334574;19;112598;-73
2023/06/08 14:37:34;;;;;;;;;;;30.50;84.70;;;;;;7334448;19;109584;-72
2023/06/08 14:40:02;;;;;;;;;;;30.60;83.00;;;;;;7335154;19;110364;-74
2023/06/08 14:42:30;;;;;;;;;;;30.50;83.60;;;;;;7340714;19;111726;-72
2023/06/08 14:44:57;;;;;;;;;;;30.60;84.60;;;;;;7332174;19;109686;-73